Time;durP1;ratioP1;P1;durP2;ratioP2;P2;SDS_P1;SDS_P2;PMS_P1;PMS_P2;Temp;Humidity;BMP_temperature;BMP_pressure;BME280_temperature;BME280_humidity;BME280_pressure;Samples;Min_cycle;Max_cycle;Signal;HPM_P1;HPM_P2
2021/06/21 00:00:41;;;;;;;11.70;7.70;;;;;;;19.64;76.03;100213.59;5068395;28;20032;-68
2021/06/21 00:03:06;;;;;;;8.73;7.60;;;;;;;19.67;75.68;100216.84;5068662;28;20468;-68
2021/06/21 00:05:32;;;;;;;11.88;8.07;;;;;;;19.65;75.82;100215.22;5056710;28;20044;-68
2021/06/21 00:07:58;;;;;;;9.07;7.03;;;;;;;19.66;75.78;100226.53;5068106;28;20028;-68
2021/06/21 00:10:24;;;;;;;8.73;6.38;;;;;;;19.69;75.79;100230.53;5068974;28;20500;-68
2021/06/21 00:12:49;;;;;;;10.65;7.03;;;;;;;19.74;75.99;100235.94;5067991;28;20036;-68
2021/06/21 00:15:19;;;;;;;10.18;7.60;;;;;;;19.73;76.23;100237.75;5067945;28;20686;-68
2021/06/21 00:17:45;;;;;;;10.05;7.63;;;;;;;19.73;76.75;100240.41;5067420;28;20079;-69
2021/06/21 00:20:12;;;;;;;12.95;8.65;;;;;;;19.62;78.29;100241.16;5064768;28;20043;-70
2021/06/21 00:22:37;;;;;;;10.50;7.32;;;;;;;19.68;78.07;100227.09;5050400;28;20677;-71
2021/06/21 00:25:04;;;;;;;10.70;7.07;;;;;;;19.64;78.43;100212.81;5068237;28;20040;-70
2021/06/21 00:27:29;;;;;;;10.32;8.35;;;;;;;19.47;79.15;100214.53;5050764;28;20040;-71
2021/06/21 00:29:55;;;;;;;25.33;9.77;;;;;;;19.49;79.17;100209.84;5049741;28;20144;-70
2021/06/21 00:32:20;;;;;;;14.05;10.25;;;;;;;19.41;80.17;100198.66;5067097;28;20035;-70
2021/06/21 00:34:46;;;;;;;15.82;10.27;;;;;;;19.37;79.94;100189.63;5064409;28;20404;-70
2021/06/21 00:37:12;;;;;;;13.07;10.02;;;;;;;19.23;81.01;100196.94;5049084;28;20060;-70
2021/06/21 00:39:37;;;;;;;17.10;9.80;;;;;;;19.32;81.14;100200.00;5065952;28;20090;-69
2021/06/21 00:42:03;;;;;;;14.32;10.00;;;;;;;19.31;81.02;100195.81;5058500;28;20612;-69
2021/06/21 00:44:29;;;;;;;15.45;11.20;;;;;;;19.28;80.18;100193.63;5066961;28;20377;-69
2021/06/21 00:46:54;;;;;;;19.05;11.60;;;;;;;19.19;81.08;100194.97;5049669;28;20390;-69
2021/06/21 00:49:19;;;;;;;14.25;10.73;;;;;;;19.11;81.57;100184.81;5036666;28;20510;-69
2021/06/21 00:51:45;;;;;;;15.85;10.68;;;;;;;19.08;81.87;100190.50;5065966;28;20032;-70
2021/06/21 00:54:11;;;;;;;14.23;9.93;;;;;;;19.09;81.71;100194.75;5067737;28;20033;-69
2021/06/21 00:56:36;;;;;;;16.77;10.23;;;;;;;19.18;81.38;100194.19;5067196;28;20409;-69
2021/06/21 00:59:03;;;;;;;13.23;10.27;;;;;;;19.25;81.28;100187.00;5068407;28;20031;-68
2021/06/21 01:01:29;;;;;;;13.50;11.25;;;;;;;19.22;81.14;100178.78;5049115;28;20142;-69
2021/06/21 01:03:55;;;;;;;15.55;10.90;;;;;;;19.20;81.66;100184.25;5050427;28;20100;-68
2021/06/21 01:06:20;;;;;;;16.40;11.73;;;;;;;19.21;81.57;100180.59;5067432;28;20148;-68
2021/06/21 01:08:47;;;;;;;14.60;11.57;;;;;;;19.22;81.30;100173.50;5049611;28;20517;-70
2021/06/21 01:11:14;;;;;;;16.85;11.70;;;;;;;19.21;81.57;100171.91;5061161;28;20039;-70
2021/06/21 01:14:06;;;;;;;15.38;12.07;;;;;;;19.07;82.22;100160.81;5046431;28;20045;-70
2021/06/21 01:16:41;;;;;;;23.43;13.40;;;;;;;19.15;82.26;100149.97;5049927;28;20029;-69
2021/06/21 01:19:44;;;;;;;17.58;13.15;;;;;;;19.10;82.33;100147.25;5052578;28;20409;-69
2021/06/21 01:22:37;;;;;;;18.67;13.03;;;;;;;19.07;82.16;100158.19;5056103;28;20036;-69
2021/06/21 01:25:26;;;;;;;19.65;12.07;;;;;;;19.19;81.52;100184.47;5067335;28;20291;-69
2021/06/21 01:28:10;;;;;;;16.63;12.23;;;;;;;19.05;81.96;100189.16;5069604;28;20066;-69
2021/06/21 01:30:53;;;;;;;11.07;8.95;;;;;;;19.00;82.34;100187.19;5071666;28;20063;-70
2021/06/21 01:33:21;;;;;;;18.90;13.05;;;;;;;18.98;82.74;100162.19;5070435;28;20039;-70
2021/06/21 01:35:58;;;;;;;16.70;13.15;;;;;;;18.89;83.68;100153.81;5071539;28;20036;-70
2021/06/21 01:38:28;;;;;;;18.27;11.27;;;;;;;18.88;83.47;100152.25;5069645;28;20023;-69
2021/06/21 01:40:56;;;;;;;19.75;13.77;;;;;;;18.92;83.26;100142.88;5071083;28;20370;-69
2021/06/21 01:43:29;;;;;;;19.95;14.20;;;;;;;18.86;83.01;100146.41;5071070;28;20051;-69
2021/06/21 01:45:59;;;;;;;16.42;13.43;;;;;;;18.71;83.69;100143.41;5070694;28;20040;-69
2021/06/21 01:48:28;;;;;;;19.60;13.52;;;;;;;18.70;84.04;100144.41;5067434;28;20040;-69
2021/06/21 01:50:57;;;;;;;19.60;13.30;;;;;;;18.77;83.95;100145.09;5069989;28;20035;-69
2021/06/21 01:53:25;;;;;;;16.20;13.13;;;;;;;18.66;84.00;100147.47;5070419;28;20484;-68
2021/06/21 01:55:58;;;;;;;16.33;12.05;;;;;;;18.73;84.05;100168.38;5071419;28;20552;-69
2021/06/21 01:58:25;;;;;;;16.65;12.88;;;;;;;18.71;84.26;100183.56;5065947;28;20070;-69
2021/06/21 02:00:51;;;;;;;20.98;13.80;;;;;;;18.79;84.18;100171.94;5051817;28;20037;-69
2021/06/21 02:03:18;;;;;;;20.23;14.10;;;;;;;18.77;84.48;100169.53;5070065;28;20063;-69
2021/06/21 02:05:48;;;;;;;24.30;14.35;;;;;;;18.79;84.11;100164.84;5070680;28;20102;-70
2021/06/21 02:08:15;;;;;;;18.38;13.50;;;;;;;18.78;83.61;100154.56;5065401;28;20030;-70
2021/06/21 02:10:40;;;;;;;23.40;13.90;;;;;;;18.74;84.01;100156.06;5070904;28;20511;-70
2021/06/21 02:13:06;;;;;;;17.95;13.27;;;;;;;18.74;83.92;100153.44;5053814;28;20040;-69
2021/06/21 02:15:32;;;;;;;15.43;12.75;;;;;;;18.70;83.49;100152.28;5065941;28;20029;-69
2021/06/21 02:17:59;;;;;;;13.80;12.32;;;;;;;18.68;83.63;100145.44;5054062;28;20451;-69
2021/06/21 02:20:25;;;;;;;17.80;11.52;;;;;;;18.58;83.40;100141.75;5070813;28;20058;-69
2021/06/21 02:22:50;;;;;;;12.43;10.10;;;;;;;18.52;84.08;100150.53;5068508;28;20063;-68
2021/06/21 02:25:16;;;;;;;10.88;9.15;;;;;;;18.54;83.67;100149.28;5052944;28;20045;-69
2021/06/21 02:27:43;;;;;;;12.27;9.43;;;;;;;18.44;84.10;100159.50;5070161;28;20036;-69
2021/06/21 02:30:12;;;;;;;9.88;8.05;;;;;;;18.37;84.30;100154.38;5051398;28;20032;-69
2021/06/21 02:32:42;;;;;;;13.02;9.18;;;;;;;18.35;84.61;100151.16;5065627;28;20056;-69
2021/06/21 02:35:09;;;;;;;11.70;9.23;;;;;;;18.39;84.71;100154.16;5068654;28;20040;-68
2021/06/21 02:37:38;;;;;;;13.45;9.82;;;;;;;18.40;84.92;100155.72;5069648;28;20036;-68
2021/06/21 02:40:07;;;;;;;14.10;10.23;;;;;;;18.42;84.72;100162.38;5068771;28;20089;-68
2021/06/21 02:42:32;;;;;;;11.52;8.98;;;;;;;18.33;84.74;100153.22;5070375;28;20076;-68
2021/06/21 02:44:57;;;;;;;8.60;6.85;;;;;;;18.36;84.66;100152.75;5070353;28;20036;-68
2021/06/21 02:47:23;;;;;;;14.13;11.20;;;;;;;18.44;83.79;100160.31;5070208;28;20025;-69
2021/06/21 02:49:49;;;;;;;10.55;9.48;;;;;;;18.33;84.00;100161.09;5070083;28;20094;-68
2021/06/21 02:52:33;;;;;;;12.18;9.95;;;;;;;18.36;84.30;100151.97;5053395;28;20062;-68
2021/06/21 02:55:09;;;;;;;9.90;8.90;;;;;;;18.36;84.44;100144.09;5053340;28;20085;-68
2021/06/21 02:57:39;;;;;;;8.70;7.25;;;;;;;18.36;84.78;100144.88;5069183;28;20051;-68
2021/06/21 03:00:06;;;;;;;10.18;8.60;;;;;;;18.40;84.32;100137.34;5070247;28;20040;-68
2021/06/21 03:02:31;;;;;;;9.77;8.77;;;;;;;18.41;84.18;100139.75;5067936;28;20064;-68
2021/06/21 03:04:59;;;;;;;11.88;8.52;;;;;;;18.40;84.34;100134.72;5069775;28;20075;-68
2021/06/21 03:07:27;;;;;;;9.27;8.20;;;;;;;18.34;84.48;100130.38;5069194;28;20032;-68
2021/06/21 03:09:53;;;;;;;6.93;5.95;;;;;;;18.33;83.53;100123.53;5069196;28;20036;-68
2021/06/21 03:12:25;;;;;;;6.53;5.13;;;;;;;18.26;83.36;100123.63;5069558;28;20032;-68
2021/06/21 03:14:51;;;;;;;5.77;5.27;;;;;;;18.09;83.97;100129.50;5069509;28;20124;-68
2021/06/21 03:17:18;;;;;;;6.43;5.68;;;;;;;18.02;84.34;100126.16;5051531;28;20127;-68
2021/06/21 03:19:45;;;;;;;6.18;5.53;;;;;;;18.12;84.41;100138.75;5055711;28;20127;-68
2021/06/21 03:22:11;;;;;;;8.40;5.55;;;;;;;18.06;84.38;100129.13;5070239;28;20095;-68
2021/06/21 03:24:37;;;;;;;7.13;6.43;;;;;;;18.03;84.08;100127.75;5052175;28;20436;-68
2021/06/21 03:27:05;;;;;;;8.00;5.90;;;;;;;18.04;84.33;100129.34;5032925;28;20041;-68
2021/06/21 03:29:30;;;;;;;7.00;6.30;;;;;;;18.07;84.61;100128.13;5065517;28;20115;-68
2021/06/21 03:31:56;;;;;;;7.53;6.20;;;;;;;18.11;84.20;100123.22;5058092;28;20425;-68
2021/06/21 03:34:24;;;;;;;6.38;5.75;;;;;;;18.07;84.11;100126.28;5061148;28;20532;-68
2021/06/21 03:36:49;;;;;;;8.60;6.35;;;;;;;18.00;84.29;100117.69;5069454;28;20115;-68
2021/06/21 03:39:15;;;;;;;6.20;5.22;;;;;;;17.89;84.24;100111.41;5067131;28;20111;-68
2021/06/21 03:41:41;;;;;;;4.68;4.20;;;;;;;17.89;84.41;100106.16;5069100;28;20611;-68
2021/06/21 03:44:07;;;;;;;7.22;4.57;;;;;;;17.92;83.98;100106.72;5069754;28;20484;-68
2021/06/21 03:46:33;;;;;;;5.80;4.38;;;;;;;17.96;83.94;100105.25;5068429;28;20055;-68
2021/06/21 03:48:58;;;;;;;5.82;4.65;;;;;;;17.84;83.59;100102.56;5069425;28;20067;-67
2021/06/21 03:51:24;;;;;;;6.53;5.35;;;;;;;17.77;83.08;100101.84;5068917;28;20501;-68
2021/06/21 03:53:51;;;;;;;5.75;5.15;;;;;;;17.75;83.00;100102.06;5068219;28;20433;-67
2021/06/21 03:56:17;;;;;;;6.80;4.50;;;;;;;17.67;82.37;100108.41;5068390;28;20476;-67
2021/06/21 03:58:45;;;;;;;6.70;5.20;;;;;;;17.62;83.26;100108.25;5069785;28;20154;-68
2021/06/21 04:01:10;;;;;;;9.55;5.30;;;;;;;17.52;83.66;100114.00;5064748;28;20033;-68
2021/06/21 04:03:36;;;;;;;5.20;4.47;;;;;;;17.47;83.48;100119.09;5051220;28;20485;-67
2021/06/21 04:06:01;;;;;;;5.30;4.53;;;;;;;17.35;83.17;100125.25;5068489;28;20024;-67
2021/06/21 04:08:27;;;;;;;3.70;3.30;;;;;;;17.27;83.23;100123.72;5068975;28;20036;-67
2021/06/21 04:10:52;;;;;;;6.13;4.60;;;;;;;17.18;83.74;100138.09;5053792;28;20045;-67
2021/06/21 04:13:19;;;;;;;6.53;4.53;;;;;;;17.15;82.91;100143.78;5052614;28;20040;-67
2021/06/21 04:15:45;;;;;;;6.57;3.42;;;;;;;17.15;82.37;100141.97;5051824;28;20040;-67
2021/06/21 04:18:13;;;;;;;6.80;3.80;;;;;;;17.08;82.04;100130.75;5047824;28;20043;-67
2021/06/21 04:20:40;;;;;;;3.58;3.00;;;;;;;17.04;81.94;100126.97;5048995;28;20382;-67
2021/06/21 04:23:06;;;;;;;4.15;2.83;;;;;;;17.06;81.66;100128.34;5050901;28;20043;-67
2021/06/21 04:25:32;;;;;;;4.72;2.97;;;;;;;17.03;80.80;100135.84;5060067;28;20443;-67
2021/06/21 04:27:57;;;;;;;3.88;2.67;;;;;;;16.99;81.09;100129.41;5065253;28;20036;-67
2021/06/21 04:30:25;;;;;;;5.38;2.97;;;;;;;16.84;82.05;100129.72;5067540;28;20040;-67
2021/06/21 04:32:53;;;;;;;3.80;3.13;;;;;;;16.82;82.07;100131.72;5049836;28;20564;-67
2021/06/21 04:35:21;;;;;;;4.35;3.67;;;;;;;16.71;82.43;100135.84;5050024;28;20119;-67
2021/06/21 04:37:47;;;;;;;5.20;3.55;;;;;;;16.77;81.75;100142.06;5048579;28;20444;-67
2021/06/21 04:40:15;;;;;;;3.95;3.33;;;;;;;16.62;82.64;100151.00;5067866;28;20032;-67
2021/06/21 04:42:42;;;;;;;4.55;3.78;;;;;;;16.68;82.83;100139.69;5068729;28;20036;-66
2021/06/21 04:45:08;;;;;;;4.75;3.92;;;;;;;16.65;82.77;100150.59;5061354;28;20032;-67
2021/06/21 04:47:34;;;;;;;47.90;23.33;;;;;;;16.55;83.24;100143.19;5063662;28;20032;-67
2021/06/21 04:50:03;;;;;;;10.30;6.95;;;;;;;16.58;83.38;100149.81;5067975;28;20123;-67
2021/06/21 04:52:32;;;;;;;5.43;4.28;;;;;;;16.65;83.56;100149.75;5053282;28;20033;-67
2021/06/21 04:55:01;;;;;;;5.50;4.45;;;;;;;16.72;82.54;100148.72;5065678;28;20032;-67
2021/06/21 04:57:28;;;;;;;6.72;4.47;;;;;;;16.71;82.44;100143.72;5068192;28;20028;-67
2021/06/21 04:59:54;;;;;;;7.43;5.03;;;;;;;16.64;82.54;100150.78;5047356;28;20028;-67
2021/06/21 05:02:20;;;;;;;4.53;4.10;;;;;;;16.67;82.46;100147.75;5068656;28;20082;-67
2021/06/21 05:04:45;;;;;;;5.10;4.28;;;;;;;16.71;82.22;100148.94;5047723;28;20051;-67
2021/06/21 05:07:10;;;;;;;5.40;4.18;;;;;;;16.58;82.70;100149.03;5048390;28;20040;-67
2021/06/21 05:09:36;;;;;;;5.90;5.10;;;;;;;16.55;81.88;100143.19;5067594;28;20032;-67
2021/06/21 05:12:02;;;;;;;6.43;4.97;;;;;;;16.60;82.63;100139.16;5049269;28;20466;-67
2021/06/21 05:14:27;;;;;;;8.43;5.55;;;;;;;16.55;82.11;100137.94;5068404;28;20032;-67
2021/06/21 05:16:53;;;;;;;4.78;4.38;;;;;;;16.61;81.16;100132.88;5066162;28;20036;-67
2021/06/21 05:19:18;;;;;;;7.72;4.47;;;;;;;16.62;81.43;100132.69;5068130;28;20467;-66
2021/06/21 05:21:43;;;;;;;6.03;4.60;;;;;;;16.65;81.88;100136.69;5068385;28;20044;-67
2021/06/21 05:24:09;;;;;;;4.57;4.03;;;;;;;16.53;82.08;100131.34;5066645;28;20127;-67
2021/06/21 05:26:35;;;;;;;5.10;4.22;;;;;;;16.45;81.83;100140.25;5049954;28;20028;-67
2021/06/21 05:29:00;;;;;;;6.72;4.13;;;;;;;16.41;82.58;100140.88;5067626;28;20590;-66
2021/06/21 05:31:25;;;;;;;7.68;4.28;;;;;;;16.40;82.43;100145.28;5068393;28;20361;-67
2021/06/21 05:33:51;;;;;;;6.22;4.25;;;;;;;16.42;81.92;100148.50;5066304;28;20025;-67
2021/06/21 05:36:16;;;;;;;6.78;5.13;;;;;;;16.41;81.80;100146.91;5049128;28;20198;-67
2021/06/21 05:38:42;;;;;;;5.82;5.10;;;;;;;16.30;82.00;100150.19;5046746;28;20037;-66
2021/06/21 05:41:07;;;;;;;5.57;4.90;;;;;;;16.06;82.72;100155.09;5065518;28;20111;-66
2021/06/21 05:43:33;;;;;;;5.70;4.82;;;;;;;16.08;82.76;100153.09;5060680;28;20044;-67
2021/06/21 05:46:00;;;;;;;6.68;4.85;;;;;;;16.18;82.57;100142.19;5048383;28;20036;-66
2021/06/21 05:48:25;;;;;;;6.75;6.05;;;;;;;16.15;82.66;100147.84;5064884;28;20358;-66
2021/06/21 05:50:51;;;;;;;6.03;5.35;;;;;;;16.26;82.16;100155.03;5065271;28;20043;-66
2021/06/21 05:53:17;;;;;;;5.57;4.97;;;;;;;16.23;82.30;100149.41;5048485;28;20047;-66
2021/06/21 05:55:42;;;;;;;5.65;5.15;;;;;;;16.22;81.63;100160.88;5059332;28;20056;-66
2021/06/21 05:58:08;;;;;;;8.70;5.75;;;;;;;16.22;82.43;100158.25;5049112;28;20118;-67
2021/06/21 06:00:33;;;;;;;6.07;5.07;;;;;;;16.22;82.04;100156.47;5067373;28;20133;-65
2021/06/21 06:02:59;;;;;;;7.28;5.72;;;;;;;16.22;81.80;100159.09;5056978;28;20082;-67
2021/06/21 06:05:25;;;;;;;6.85;5.68;;;;;;;16.19;81.78;100158.69;5066793;28;20115;-66
2021/06/21 06:07:51;;;;;;;8.80;5.70;;;;;;;16.21;81.89;100165.31;5068315;28;20033;-67
2021/06/21 06:10:16;;;;;;;7.72;5.15;;;;;;;16.28;82.11;100153.00;5066590;28;20439;-67
2021/06/21 06:12:42;;;;;;;7.47;5.85;;;;;;;16.24;81.76;100158.88;5067298;28;20032;-67
2021/06/21 06:15:09;;;;;;;6.38;5.78;;;;;;;16.27;82.09;100167.09;5069900;28;20032;-68
2021/06/21 06:17:34;;;;;;;7.03;5.78;;;;;;;16.23;82.35;100171.13;5069844;28;20036;-67
2021/06/21 06:20:00;;;;;;;6.70;6.00;;;;;;;16.22;82.21;100177.38;5068967;28;20078;-67
2021/06/21 06:22:25;;;;;;;7.38;6.43;;;;;;;16.30;82.59;100177.13;5071281;28;20036;-67
2021/06/21 06:24:51;;;;;;;5.07;4.57;;;;;;;16.35;81.73;100174.72;5071356;28;20040;-66
2021/06/21 06:27:17;;;;;;;6.32;4.13;;;;;;;16.38;81.51;100173.47;5052108;28;20047;-67
2021/06/21 06:29:42;;;;;;;6.38;3.83;;;;;;;16.41;81.23;100185.34;5058412;28;20029;-67
2021/06/21 06:32:08;;;;;;;4.85;4.05;;;;;;;16.35;81.43;100187.00;5060196;28;20036;-68
2021/06/21 06:34:34;;;;;;;7.07;4.18;;;;;;;16.26;80.34;100196.09;5070191;28;20047;-67
2021/06/21 06:37:00;;;;;;;6.93;3.80;;;;;;;16.22;80.94;100192.25;5053660;28;20090;-67
2021/06/21 06:39:26;;;;;;;5.50;4.93;;;;;;;16.18;80.88;100198.91;5050459;28;20626;-67
2021/06/21 06:41:51;;;;;;;4.45;4.05;;;;;;;16.17;80.93;100205.19;5069061;28;20032;-67
2021/06/21 06:44:17;;;;;;;5.20;4.70;;;;;;;16.13;81.06;100204.78;5047315;28;21418;-67
2021/06/21 06:46:42;;;;;;;5.13;4.38;;;;;;;16.05;80.90;100207.59;5069108;28;20047;-67
2021/06/21 06:49:08;;;;;;;5.38;4.47;;;;;;;16.04;80.75;100203.41;5069406;28;20055;-67
2021/06/21 06:51:39;;;;;;;6.65;4.07;;;;;;;15.91;81.43;100194.56;5051587;28;20389;-67
2021/06/21 06:54:10;;;;;;;7.32;5.00;;;;;;;16.01;81.84;100204.63;5068161;28;20067;-66
2021/06/21 06:59:20;;;;;;;6.60;5.00;;;;;;;16.11;80.86;100214.66;5069205;28;20040;-67
2021/06/21 07:01:46;;;;;;;6.38;5.10;;;;;;;16.13;80.93;100210.81;5070332;28;20029;-67
2021/06/21 07:04:11;;;;;;;6.07;4.93;;;;;;;16.07;80.78;100218.69;5070375;28;20059;-67
2021/06/21 07:06:37;;;;;;;6.53;4.80;;;;;;;16.04;80.51;100221.72;5069901;28;20491;-67
2021/06/21 07:09:03;;;;;;;5.50;3.97;;;;;;;15.92;81.51;100216.31;5069520;28;20036;-67
2021/06/21 07:11:29;;;;;;;6.53;3.53;;;;;;;15.98;81.62;100223.34;5069822;28;20043;-67
2021/06/21 07:13:55;;;;;;;6.32;3.22;;;;;;;15.98;82.20;100225.16;5047004;28;20041;-67
2021/06/21 07:16:21;;;;;;;4.05;3.35;;;;;;;15.98;82.06;100225.94;5069559;28;20089;-67
2021/06/21 07:18:46;;;;;;;3.35;2.55;;;;;;;15.95;81.50;100229.78;5068149;28;20033;-67
2021/06/21 07:21:11;;;;;;;3.40;2.45;;;;;;;15.89;81.88;100230.59;5067865;28;20029;-66
2021/06/21 07:23:37;;;;;;;4.35;2.88;;;;;;;15.80;82.46;100231.00;5066934;28;20028;-67
2021/06/21 07:26:05;;;;;;;3.80;2.47;;;;;;;15.90;81.71;100249.72;5068060;28;20477;-67
2021/06/21 07:28:31;;;;;;;2.50;2.10;;;;;;;15.92;81.64;100252.91;5068083;28;20519;-67
2021/06/21 07:30:56;;;;;;;3.58;2.00;;;;;;;15.91;82.40;100246.88;5070329;28;20032;-67
2021/06/21 07:33:23;;;;;;;2.85;2.13;;;;;;;15.96;82.10;100246.25;5065192;28;20036;-67
2021/06/21 07:35:50;;;;;;;3.28;1.70;;;;;;;15.85;81.65;100257.34;5068905;28;20600;-68
2021/06/21 07:38:16;;;;;;;2.05;1.50;;;;;;;15.88;82.50;100256.91;5067754;28;20037;-68
2021/06/21 07:40:41;;;;;;;2.80;1.63;;;;;;;15.93;82.35;100263.16;5067301;28;20381;-68
2021/06/21 07:43:06;;;;;;;3.22;1.33;;;;;;;15.92;82.82;100273.84;5067614;28;20028;-68
2021/06/21 07:45:32;;;;;;;3.47;1.83;;;;;;;16.08;82.44;100265.53;5068225;28;20042;-68
2021/06/21 07:47:58;;;;;;;7.65;2.13;;;;;;;16.11;82.95;100266.94;5067354;28;20020;-68
2021/06/21 07:50:30;;;;;;;1.20;1.10;;;;;;;16.04;82.76;100279.25;5068339;28;20062;-68
2021/06/21 07:52:55;;;;;;;1.55;1.10;;;;;;;16.07;82.64;100277.03;5051909;28;20534;-68
2021/06/21 07:55:27;;;;;;;4.55;1.30;;;;;;;16.04;82.53;100281.84;5058731;28;20140;-68
2021/06/21 07:57:53;;;;;;;1.35;0.80;;;;;;;16.00;82.18;100286.69;5053419;28;20126;-68
2021/06/21 08:00:21;;;;;;;1.05;0.90;;;;;;;16.05;82.25;100280.81;5066198;28;20108;-68
2021/06/21 08:02:47;;;;;;;1.08;0.82;;;;;;;15.95;81.88;100276.84;5062565;28;20044;-68
2021/06/21 08:05:13;;;;;;;0.90;0.80;;;;;;;15.95;82.22;100286.47;5063913;28;20380;-68
2021/06/21 08:07:39;;;;;;;0.98;0.90;;;;;;;16.01;81.87;100290.91;5060933;28;20070;-69
2021/06/21 08:10:05;;;;;;;0.82;0.73;;;;;;;15.93;82.52;100291.09;5050352;28;20508;-67
2021/06/21 08:12:31;;;;;;;1.73;1.23;;;;;;;15.86;81.83;100290.31;5050788;28;20055;-68
2021/06/21 08:14:56;;;;;;;1.45;0.70;;;;;;;15.94;81.68;100287.50;5054686;28;20485;-68
2021/06/21 08:17:22;;;;;;;3.55;0.70;;;;;;;16.02;81.95;100291.72;5067624;28;20453;-68
2021/06/21 08:19:47;;;;;;;1.63;0.70;;;;;;;15.99;82.12;100292.91;5068742;28;20036;-70
2021/06/21 08:22:13;;;;;;;0.55;0.47;;;;;;;16.02;81.71;100299.56;5067885;28;20035;-68
2021/06/21 08:24:41;;;;;;;1.60;0.60;;;;;;;16.01;82.41;100301.38;5050813;28;20105;-70
2021/06/21 08:27:07;;;;;;;3.67;0.60;;;;;;;16.11;82.20;100293.91;5053511;28;20433;-68
2021/06/21 08:29:33;;;;;;;0.65;0.55;;;;;;;16.17;82.66;100307.97;5061987;28;20024;-68
2021/06/21 08:31:58;;;;;;;0.22;0.22;;;;;;;16.19;82.41;100313.81;5032399;28;20050;-68
2021/06/21 08:34:23;;;;;;;0.50;0.45;;;;;;;16.39;82.03;100310.31;5047436;28;20279;-68
2021/06/21 08:36:49;;;;;;;0.30;0.30;;;;;;;16.41;81.40;100316.97;5067113;28;20048;-68
2021/06/21 08:39:14;;;;;;;0.73;0.40;;;;;;;16.21;81.97;100319.63;5048338;28;20032;-68
2021/06/21 08:41:40;;;;;;;0.38;0.30;;;;;;;16.13;82.22;100327.69;5049935;28;20028;-68
2021/06/21 08:44:05;;;;;;;0.77;0.30;;;;;;;16.23;82.04;100332.50;5067672;28;20043;-68
2021/06/21 08:46:32;;;;;;;1.05;0.68;;;;;;;16.29;81.85;100337.75;5067076;28;20526;-67
2021/06/21 08:48:58;;;;;;;0.47;0.40;;;;;;;16.46;81.90;100337.28;5067863;28;20052;-68
2021/06/21 08:51:24;;;;;;;0.52;0.30;;;;;;;16.41;81.76;100344.97;5060597;28;20473;-67
2021/06/21 08:53:49;;;;;;;0.43;0.40;;;;;;;16.44;81.75;100350.56;5066586;28;20298;-68
2021/06/21 08:56:14;;;;;;;0.40;0.30;;;;;;;16.35;81.70;100360.47;5064813;28;20041;-67
2021/06/21 08:58:40;;;;;;;0.88;0.25;;;;;;;16.45;81.43;100359.22;5065892;28;20120;-68
2021/06/21 09:01:07;;;;;;;0.75;0.40;;;;;;;16.49;80.97;100363.84;5068714;28;20083;-67
2021/06/21 09:03:34;;;;;;;1.08;0.40;;;;;;;16.38;80.99;100356.63;5049687;28;20036;-67
2021/06/21 09:06:01;;;;;;;1.83;0.47;;;;;;;16.49;81.04;100360.44;5063518;28;20051;-67
2021/06/21 09:08:27;;;;;;;1.52;0.50;;;;;;;16.39;80.25;100358.25;5066378;28;20388;-68
2021/06/21 09:10:52;;;;;;;1.08;0.40;;;;;;;16.24;81.04;100355.06;5064672;28;20051;-68
2021/06/21 09:13:19;;;;;;;4.47;3.05;;;;;;;16.28;80.47;100362.28;5069455;28;20040;-69
2021/06/21 09:15:56;;;;;;;3.42;0.50;;;;;;;16.30;80.80;100362.09;5060696;28;20040;-68
2021/06/21 09:18:34;;;;;;;2.25;0.55;;;;;;;16.43;81.14;100363.88;5057665;28;20059;-68
2021/06/21 09:21:22;;;;;;;1.00;0.40;;;;;;;16.34;81.37;100376.34;5067937;28;20072;-68
2021/06/21 09:23:49;;;;;;;0.68;0.63;;;;;;;16.46;81.13;100384.38;5064032;28;20496;-68
2021/06/21 09:26:17;;;;;;;0.60;0.47;;;;;;;16.53;80.51;100390.41;5042839;28;20550;-69
2021/06/21 09:28:42;;;;;;;0.50;0.40;;;;;;;16.41;80.66;100402.53;5068333;28;20484;-70
2021/06/21 09:31:07;;;;;;;0.68;0.50;;;;;;;16.27;81.51;100404.34;5065761;28;20032;-68
2021/06/21 09:33:33;;;;;;;0.60;0.47;;;;;;;16.32;81.11;100415.78;5056210;28;20075;-68
2021/06/21 09:35:58;;;;;;;0.35;0.35;;;;;;;16.36;80.91;100416.19;5064814;28;20481;-68
2021/06/21 09:38:24;;;;;;;1.63;0.50;;;;;;;16.36;80.44;100421.44;5067434;28;20353;-69
2021/06/21 09:40:55;;;;;;;0.30;0.30;;;;;;;16.43;80.92;100424.06;5066756;28;20054;-68
2021/06/21 09:43:35;;;;;;;0.73;0.30;;;;;;;16.52;79.79;100425.44;5068048;28;20063;-68
2021/06/21 09:46:14;;;;;;;0.40;0.30;;;;;;;16.54;79.56;100436.50;5067128;28;20044;-68
2021/06/21 09:48:57;;;;;;;0.68;0.38;;;;;;;16.72;79.42;100439.28;5069187;28;20469;-67
2021/06/21 09:51:31;;;;;;;0.43;0.30;;;;;;;16.70;78.95;100443.91;5068278;28;20036;-69
2021/06/21 09:54:08;;;;;;;0.28;0.28;;;;;;;16.50;79.25;100443.13;5071321;28;20032;-68
2021/06/21 09:56:36;;;;;;;2.70;0.25;;;;;;;16.39;79.96;100441.13;5070652;28;20037;-67
2021/06/21 09:59:24;;;;;;;0.30;0.20;;;;;;;16.36;80.33;100444.97;5070391;28;20119;-68
2021/06/21 10:01:59;;;;;;;0.30;0.20;;;;;;;16.46;81.06;100436.72;5058974;28;20109;-68
2021/06/21 10:04:26;;;;;;;0.43;0.38;;;;;;;16.63;80.67;100440.53;5067601;28;20138;-69
2021/06/21 10:06:52;;;;;;;0.45;0.28;;;;;;;16.77;79.53;100446.53;5053072;28;20066;-68
2021/06/21 10:09:18;;;;;;;0.85;0.28;;;;;;;16.82;80.44;100444.13;5050542;28;20039;-68
2021/06/21 10:11:45;;;;;;;0.10;0.10;;;;;;;16.96;81.01;100449.34;5070944;28;20032;-67
2021/06/21 10:14:13;;;;;;;0.65;0.40;;;;;;;17.13;78.99;100442.63;5068324;28;20064;-68
2021/06/21 10:16:39;;;;;;;0.40;0.30;;;;;;;17.16;79.60;100447.44;5070648;28;20039;-68
2021/06/21 10:19:05;;;;;;;0.20;0.20;;;;;;;17.12;79.26;100451.47;5051055;28;20032;-68
2021/06/21 10:21:32;;;;;;;0.57;0.35;;;;;;;17.19;79.93;100460.13;5052999;28;20056;-68
2021/06/21 10:23:58;;;;;;;0.20;0.20;;;;;;;16.96;79.24;100468.47;5067888;28;20050;-68
2021/06/21 10:26:24;;;;;;;0.20;0.20;;;;;;;17.09;78.61;100480.72;5067478;28;20063;-68
2021/06/21 10:28:51;;;;;;;0.28;0.10;;;;;;;17.06;78.82;100488.97;5067109;28;20028;-68
2021/06/21 10:31:20;;;;;;;0.38;0.30;;;;;;;17.31;78.56;100492.53;5069741;28;20085;-68
2021/06/21 10:33:45;;;;;;;0.90;0.20;;;;;;;17.20;77.31;100498.41;5064514;28;20113;-67
2021/06/21 10:36:11;;;;;;;0.30;0.30;;;;;;;17.38;78.50;100495.09;5057811;28;20024;-68
2021/06/21 10:38:36;;;;;;;0.20;0.20;;;;;;;17.50;77.88;100508.38;5070233;28;20038;-67
2021/06/21 10:41:06;;;;;;;0.30;0.30;;;;;;;17.69;76.62;100506.69;5069150;28;20041;-67
2021/06/21 10:43:40;;;;;;;1.02;0.30;;;;;;;17.67;76.45;100517.38;5070356;28;20028;-67
2021/06/21 10:46:24;;;;;;;0.30;0.30;;;;;;;17.68;76.39;100520.78;5070028;28;20513;-67
2021/06/21 10:49:02;;;;;;;0.32;0.32;;;;;;;17.67;76.69;100520.00;5070652;28;20093;-67
2021/06/21 10:51:31;;;;;;;0.80;0.30;;;;;;;17.97;75.85;100514.22;5062410;28;20033;-67
2021/06/21 10:53:58;;;;;;;0.30;0.20;;;;;;;18.02;74.74;100516.97;5066741;28;20548;-66
2021/06/21 10:56:59;;;;;;;0.30;0.30;;;;;;;17.80;73.87;100502.56;5059803;28;20028;-67
2021/06/21 10:59:27;;;;;;;0.50;0.40;;;;;;;17.78;75.46;100515.09;4983917;28;20046;-67
2021/06/21 11:01:53;;;;;;;0.57;0.40;;;;;;;17.84;76.30;100532.63;5054122;28;20136;-67
2021/06/21 11:04:31;;;;;;;0.70;0.43;;;;;;;17.85;74.58;100548.16;5048579;28;20036;-67
2021/06/21 11:07:12;;;;;;;2.80;0.90;;;;;;;17.83;75.73;100575.56;5051488;28;20040;-67
2021/06/21 11:09:47;;;;;;;0.50;0.43;;;;;;;17.79;73.00;100584.88;5050286;28;20036;-68
2021/06/21 11:12:21;;;;;;;0.80;0.60;;;;;;;17.74;74.50;100595.97;5068603;28;20040;-67
2021/06/21 11:15:11;;;;;;;0.40;0.35;;;;;;;17.75;74.39;100587.13;5066081;28;20310;-66
2021/06/21 11:17:45;;;;;;;1.38;0.70;;;;;;;17.85;74.03;100592.72;5044064;28;20384;-67
2021/06/21 11:20:29;;;;;;;0.30;0.30;;;;;;;17.84;75.05;100603.44;5069310;28;20033;-67
2021/06/21 11:23:02;;;;;;;0.22;0.22;;;;;;;17.92;73.69;100608.44;5065844;28;20485;-66
2021/06/21 11:25:42;;;;;;;1.55;0.60;;;;;;;17.93;74.23;100625.00;5067910;28;20468;-67
2021/06/21 11:28:46;;;;;;;0.38;0.30;;;;;;;17.87;73.69;100627.41;5067480;28;20032;-67